Time;durP1;ratioP1;P1;durP2;ratioP2;P2;SDS_P1;SDS_P2;PMS_P1;PMS_P2;Temp;Humidity;BMP_temperature;BMP_pressure;BME280_temperature;BME280_humidity;BME280_pressure;Samples;Min_cycle;Max_cycle;Signal;HPM_P1;HPM_P2
2022/12/24 00:01:21;;;;;;;33.40;21.40;;;;;;;;;;4990947;28;20030;-42
2022/12/24 00:03:47;;;;;;;27.35;18.55;;;;;;;;;;4985427;28;20048;-42
2022/12/24 00:06:17;;;;;;;24.13;16.20;;;;;;;;;;4988519;28;20022;-43
2022/12/24 00:08:42;;;;;;;27.25;14.32;;;;;;;;;;4986365;28;20064;-43
2022/12/24 00:11:08;;;;;;;24.17;11.88;;;;;;;;;;4991012;28;20022;-42
2022/12/24 00:13:33;;;;;;;21.67;14.50;;;;;;;;;;4988969;28;20412;-42
2022/12/24 00:15:59;;;;;;;31.77;19.15;;;;;;;;;;4988729;28;20163;-42
2022/12/24 00:18:25;;;;;;;35.45;19.30;;;;;;;;;;4988874;28;20038;-45
2022/12/24 00:20:51;;;;;;;31.13;18.58;;;;;;;;;;4986183;28;20039;-44
2022/12/24 00:23:17;;;;;;;33.75;19.88;;;;;;;;;;4988933;28;20503;-43
2022/12/24 00:25:43;;;;;;;29.58;17.92;;;;;;;;;;4991826;28;20022;-43
2022/12/24 00:28:09;;;;;;;23.30;14.77;;;;;;;;;;4986921;28;20042;-43
2022/12/24 00:30:36;;;;;;;29.52;17.63;;;;;;;;;;4991327;28;20030;-43
2022/12/24 00:33:01;;;;;;;32.70;20.42;;;;;;;;;;4987789;28;20446;-42
2022/12/24 00:35:27;;;;;;;42.35;21.60;;;;;;;;;;4988161;28;20035;-44
2022/12/24 00:37:52;;;;;;;41.10;21.83;;;;;;;;;;4986500;28;20045;-42
2022/12/24 00:40:17;;;;;;;40.15;19.73;;;;;;;;;;4987632;28;20100;-44
2022/12/24 00:42:43;;;;;;;26.38;17.38;;;;;;;;;;4987034;28;20052;-44
2022/12/24 00:45:09;;;;;;;30.90;18.40;;;;;;;;;;4988011;28;20387;-42
2022/12/24 00:47:35;;;;;;;19.75;10.52;;;;;;;;;;4987660;28;20734;-43
2022/12/24 00:50:01;;;;;;;19.02;12.60;;;;;;;;;;4990024;28;20027;-43
2022/12/24 00:52:27;;;;;;;26.00;12.45;;;;;;;;;;4986291;28;20053;-42
2022/12/24 00:54:52;;;;;;;19.40;12.30;;;;;;;;;;4983613;28;20042;-42
2022/12/24 00:57:18;;;;;;;25.17;13.23;;;;;;;;;;4987960;28;20144;-42
2022/12/24 00:59:43;;;;;;;25.40;14.88;;;;;;;;;;4986963;28;20149;-42
2022/12/24 01:02:08;;;;;;;30.50;15.70;;;;;;;;;;4987808;28;20057;-44
2022/12/24 01:07:18;;;;;;;27.83;15.68;;;;;;;;;;4986676;28;20049;-42
2022/12/24 01:09:43;;;;;;;24.92;14.07;;;;;;;;;;4990705;28;20034;-42
2022/12/24 01:12:09;;;;;;;23.95;12.98;;;;;;;;;;4984966;28;20418;-42
2022/12/24 01:14:36;;;;;;;23.67;12.07;;;;;;;;;;4984616;28;20035;-42
2022/12/24 01:17:01;;;;;;;32.38;15.18;;;;;;;;;;4986095;28;20145;-42
2022/12/24 01:19:27;;;;;;;25.70;12.00;;;;;;;;;;4986641;28;20625;-44
2022/12/24 01:21:52;;;;;;;20.23;10.45;;;;;;;;;;4987393;28;20045;-42
2022/12/24 01:24:18;;;;;;;21.15;10.75;;;;;;;;;;4983830;28;20476;-43
2022/12/24 01:26:43;;;;;;;24.75;12.82;;;;;;;;;;4985533;28;20463;-43
2022/12/24 01:29:09;;;;;;;25.58;14.55;;;;;;;;;;4989780;28;20403;-42
2022/12/24 01:31:34;;;;;;;24.58;12.90;;;;;;;;;;4986181;28;20026;-42
2022/12/24 01:33:59;;;;;;;20.25;10.15;;;;;;;;;;4986885;28;20150;-43
2022/12/24 01:36:25;;;;;;;20.65;11.27;;;;;;;;;;4985785;28;20038;-45
2022/12/24 01:38:50;;;;;;;29.45;13.07;;;;;;;;;;4988403;28;20047;-42
2022/12/24 01:44:30;;;;;;;23.30;11.00;;;;;;;;;;4985726;28;20088;-46
2022/12/24 01:47:26;;;;;;;28.45;12.48;;;;;;;;;;4984435;28;20058;-42
2022/12/24 01:50:02;;;;;;;30.30;13.52;;;;;;;;;;4984279;28;20038;-43
2022/12/24 01:52:32;;;;;;;29.58;16.70;;;;;;;;;;4986101;28;20100;-47
2022/12/24 01:55:04;;;;;;;24.13;14.23;;;;;;;;;;4998156;28;20399;-42
2022/12/24 01:57:36;;;;;;;23.58;13.50;;;;;;;;;;4983821;28;20097;-42
2022/12/24 02:00:07;;;;;;;21.05;13.95;;;;;;;;;;4984854;28;20031;-43
2022/12/24 02:02:33;;;;;;;26.15;13.48;;;;;;;;;;4987641;28;20073;-43
2022/12/24 02:05:08;;;;;;;23.30;11.65;;;;;;;;;;4988131;28;20084;-42
2022/12/24 02:07:34;;;;;;;18.42;11.30;;;;;;;;;;4986599;28;20034;-45
2022/12/24 02:10:00;;;;;;;19.05;10.95;;;;;;;;;;4990120;28;20609;-45
2022/12/24 02:12:29;;;;;;;23.55;11.70;;;;;;;;;;4991671;28;20153;-44
2022/12/24 02:14:55;;;;;;;17.48;10.70;;;;;;;;;;4989190;28;20069;-43
2022/12/24 02:17:23;;;;;;;16.10;10.13;;;;;;;;;;4990388;28;20100;-42
2022/12/24 02:20:03;;;;;;;16.45;9.45;;;;;;;;;;4990833;28;20085;-47
2022/12/24 02:22:59;;;;;;;17.05;10.20;;;;;;;;;;4991560;28;20392;-42
2022/12/24 02:25:33;;;;;;;20.10;13.27;;;;;;;;;;4987129;28;20104;-43
2022/12/24 02:28:26;;;;;;;20.25;11.45;;;;;;;;;;4991362;28;20041;-43
2022/12/24 02:30:59;;;;;;;22.75;11.60;;;;;;;;;;4991795;28;20034;-47
2022/12/24 02:33:34;;;;;;;20.02;11.30;;;;;;;;;;4987476;28;20073;-42
2022/12/24 02:36:13;;;;;;;18.73;11.27;;;;;;;;;;4990549;28;20045;-42
2022/12/24 02:38:47;;;;;;;27.83;11.05;;;;;;;;;;4988659;28;20030;-42
2022/12/24 02:41:19;;;;;;;16.80;10.32;;;;;;;;;;4991485;28;20034;-43
2022/12/24 02:43:45;;;;;;;;;;;;;;;;;;4991686;28;20038;-42
2022/12/24 02:46:15;;;;;;;17.08;9.07;;;;;;;;;;4989938;28;20004;-43
2022/12/24 02:48:45;;;;;;;16.75;8.48;;;;;;;;;;4987644;28;20049;-45
2022/12/24 02:51:11;;;;;;;15.38;9.48;;;;;;;;;;4990066;28;20498;-42
2022/12/24 02:53:37;;;;;;;21.85;10.93;;;;;;;;;;4987033;28;20097;-43
2022/12/24 02:56:33;;;;;;;24.65;12.00;;;;;;;;;;4987054;28;20113;-43
2022/12/24 02:59:21;;;;;;;17.10;9.77;;;;;;;;;;4988225;28;20499;-42
2022/12/24 03:01:56;;;;;;;17.50;9.75;;;;;;;;;;4989509;28;20026;-43
2022/12/24 03:04:39;;;;;;;14.77;9.43;;;;;;;;;;4989272;28;20076;-42
2022/12/24 03:07:17;;;;;;;12.55;9.18;;;;;;;;;;4990576;28;20038;-46
2022/12/24 03:09:54;;;;;;;21.35;9.38;;;;;;;;;;4990131;28;20057;-43
2022/12/24 03:12:25;;;;;;;16.67;9.23;;;;;;;;;;4988670;28;20042;-41
2022/12/24 03:14:51;;;;;;;21.27;11.38;;;;;;;;;;4990396;28;20022;-44
2022/12/24 03:17:17;;;;;;;20.55;10.43;;;;;;;;;;4995752;28;20038;-43
2022/12/24 03:19:43;;;;;;;18.45;9.98;;;;;;;;;;4990101;28;20030;-42
2022/12/24 03:22:10;;;;;;;19.40;9.95;;;;;;;;;;4988414;28;20049;-42
2022/12/24 03:24:37;;;;;;;17.55;9.68;;;;;;;;;;4985199;28;20034;-42
2022/12/24 03:27:05;;;;;;;13.77;8.93;;;;;;;;;;4987956;28;20038;-42
2022/12/24 03:29:32;;;;;;;18.95;10.63;;;;;;;;;;4986396;28;20045;-43
2022/12/24 03:32:03;;;;;;;21.13;11.95;;;;;;;;;;4989071;28;20049;-43
2022/12/24 03:34:28;;;;;;;29.05;13.43;;;;;;;;;;4987697;28;20030;-42
2022/12/24 03:36:54;;;;;;;28.80;14.15;;;;;;;;;;4985774;28;20578;-42
2022/12/24 03:39:20;;;;;;;24.70;13.88;;;;;;;;;;4987013;28;20026;-42
2022/12/24 03:41:45;;;;;;;26.58;12.95;;;;;;;;;;4989278;28;20538;-42
2022/12/24 03:44:10;;;;;;;23.30;12.55;;;;;;;;;;4986809;28;20533;-42
2022/12/24 03:46:36;;;;;;;29.70;13.48;;;;;;;;;;4990396;28;20031;-43
2022/12/24 03:49:01;;;;;;;20.60;11.75;;;;;;;;;;4991287;28;20149;-42
2022/12/24 03:51:27;;;;;;;16.27;10.02;;;;;;;;;;4990584;28;20022;-36
2022/12/24 03:53:56;;;;;;;19.52;11.80;;;;;;;;;;4987681;28;20101;-42
2022/12/24 03:56:22;;;;;;;18.48;12.45;;;;;;;;;;4988943;28;20061;-42
2022/12/24 03:58:48;;;;;;;24.63;12.98;;;;;;;;;;4988916;28;20039;-42
2022/12/24 04:01:14;;;;;;;20.70;12.65;;;;;;;;;;4991219;28;20553;-42
2022/12/24 04:03:40;;;;;;;11.40;9.32;;;;;;;;;;4989004;28;20049;-42
2022/12/24 04:06:11;;;;;;;18.20;9.50;;;;;;;;;;4989790;28;20022;-44
2022/12/24 04:08:38;;;;;;;22.05;11.52;;;;;;;;;;4986916;28;20049;-43
2022/12/24 04:11:04;;;;;;;17.35;11.60;;;;;;;;;;4985009;28;20114;-44
2022/12/24 04:13:29;;;;;;;15.75;10.40;;;;;;;;;;4985890;28;20550;-43
2022/12/24 04:15:57;;;;;;;26.70;11.65;;;;;;;;;;4987657;28;20018;-40
2022/12/24 04:18:23;;;;;;;20.00;10.35;;;;;;;;;;4988426;28;20559;-42
2022/12/24 04:20:48;;;;;;;26.45;11.95;;;;;;;;;;4990325;28;20149;-42
2022/12/24 04:23:14;;;;;;;19.33;11.40;;;;;;;;;;4989321;28;20102;-44
2022/12/24 04:25:39;;;;;;;21.58;11.07;;;;;;;;;;4987609;28;20046;-42
2022/12/24 04:28:04;;;;;;;20.00;11.68;;;;;;;;;;4987786;28;20049;-45
2022/12/24 04:30:30;;;;;;;23.23;11.13;;;;;;;;;;4988894;28;20399;-42
2022/12/24 04:32:55;;;;;;;25.10;11.55;;;;;;;;;;4987344;28;20050;-45
2022/12/24 04:35:20;;;;;;;21.27;11.65;;;;;;;;;;4987569;28;20034;-43
2022/12/24 04:37:46;;;;;;;19.50;11.45;;;;;;;;;;4988804;28;20038;-42
2022/12/24 04:40:11;;;;;;;21.08;11.27;;;;;;;;;;4984580;28;20483;-42
2022/12/24 04:42:37;;;;;;;14.77;10.55;;;;;;;;;;4986707;28;20043;-42
2022/12/24 04:45:02;;;;;;;31.15;13.02;;;;;;;;;;4987080;28;20399;-43
2022/12/24 04:47:28;;;;;;;22.88;12.55;;;;;;;;;;4987724;28;20097;-42
2022/12/24 04:49:53;;;;;;;23.00;12.88;;;;;;;;;;4988317;28;20392;-43
2022/12/24 04:52:19;;;;;;;20.65;11.60;;;;;;;;;;4988351;28;20047;-43
2022/12/24 04:54:44;;;;;;;35.75;12.95;;;;;;;;;;4987892;28;20030;-42
2022/12/24 04:57:09;;;;;;;20.50;12.25;;;;;;;;;;4985109;28;20043;-43
2022/12/24 04:59:35;;;;;;;25.48;12.00;;;;;;;;;;4988822;28;20034;-42
2022/12/24 05:02:00;;;;;;;27.95;13.20;;;;;;;;;;4987913;28;20129;-42
2022/12/24 05:04:25;;;;;;;21.02;12.20;;;;;;;;;;4988843;28;20608;-44
2022/12/24 05:06:51;;;;;;;26.60;12.15;;;;;;;;;;4989536;28;20832;-44
2022/12/24 05:09:16;;;;;;;24.83;12.13;;;;;;;;;;4987238;28;20018;-42
2022/12/24 05:11:42;;;;;;;27.52;11.80;;;;;;;;;;4988664;28;20084;-43
2022/12/24 05:14:07;;;;;;;21.35;12.25;;;;;;;;;;4986968;28;20760;-43
2022/12/24 05:16:32;;;;;;;19.95;10.73;;;;;;;;;;4987606;28;20390;-43
2022/12/24 05:18:58;;;;;;;27.90;11.68;;;;;;;;;;4986833;28;20026;-43
2022/12/24 05:21:24;;;;;;;22.65;12.13;;;;;;;;;;4987954;28;20081;-44
2022/12/24 05:26:48;;;;;;;15.07;10.23;;;;;;;;;;4987761;28;20112;-42
2022/12/24 05:29:13;;;;;;;21.48;11.82;;;;;;;;;;4986556;28;20022;-43
2022/12/24 05:31:40;;;;;;;24.20;12.57;;;;;;;;;;4985622;28;20030;-42
2022/12/24 05:34:06;;;;;;;25.85;11.05;;;;;;;;;;4988632;28;20030;-45
2022/12/24 05:36:32;;;;;;;20.17;10.52;;;;;;;;;;4987790;28;20025;-41
2022/12/24 05:38:58;;;;;;;22.05;10.23;;;;;;;;;;4987829;28;20026;-43
2022/12/24 05:41:24;;;;;;;19.67;10.70;;;;;;;;;;4983844;28;20026;-43
2022/12/24 05:43:49;;;;;;;15.77;9.95;;;;;;;;;;4988883;28;20100;-42
2022/12/24 05:46:17;;;;;;;14.82;9.55;;;;;;;;;;4985219;28;20470;-42
2022/12/24 05:48:43;;;;;;;18.73;9.80;;;;;;;;;;4985775;28;20041;-42
2022/12/24 05:51:11;;;;;;;16.08;9.77;;;;;;;;;;4989141;28;20105;-42
2022/12/24 05:53:38;;;;;;;18.77;9.50;;;;;;;;;;4985471;28;20126;-42
2022/12/24 05:56:07;;;;;;;20.10;9.32;;;;;;;;;;4984975;28;20042;-42
2022/12/24 05:58:33;;;;;;;16.83;10.07;;;;;;;;;;4987324;28;20502;-43
2022/12/24 06:01:01;;;;;;;16.38;9.73;;;;;;;;;;4986864;28;20855;-42
2022/12/24 06:03:26;;;;;;;23.95;9.70;;;;;;;;;;4988671;28;20042;-42
2022/12/24 06:06:03;;;;;;;17.35;10.93;;;;;;;;;;4982849;28;20022;-42
2022/12/24 06:08:30;;;;;;;22.17;12.25;;;;;;;;;;4986922;28;20042;-42
2022/12/24 06:10:57;;;;;;;21.05;10.02;;;;;;;;;;4988870;28;20045;-42
2022/12/24 06:13:24;;;;;;;22.10;10.05;;;;;;;;;;4986290;28;20034;-42
2022/12/24 06:15:49;;;;;;;17.40;9.20;;;;;;;;;;4986047;28;20450;-42
2022/12/24 06:18:14;;;;;;;20.17;9.18;;;;;;;;;;4988491;28;20114;-43
2022/12/24 06:20:40;;;;;;;14.18;8.02;;;;;;;;;;4985415;28;20073;-42
2022/12/24 06:23:05;;;;;;;17.73;8.40;;;;;;;;;;4986766;28;20042;-44
2022/12/24 06:25:31;;;;;;;19.08;8.45;;;;;;;;;;4982920;28;20030;-42
2022/12/24 06:27:56;;;;;;;14.50;7.25;;;;;;;;;;4988214;28;20042;-40
2022/12/24 06:30:21;;;;;;;10.90;7.03;;;;;;;;;;4987916;28;20023;-43
2022/12/24 06:32:47;;;;;;;12.10;9.45;;;;;;;;;;4987231;28;20046;-42
2022/12/24 06:35:12;;;;;;;16.45;9.02;;;;;;;;;;4987478;28;20034;-42
2022/12/24 06:37:37;;;;;;;14.23;10.40;;;;;;;;;;4983407;28;20038;-42
2022/12/24 06:40:03;;;;;;;27.67;14.82;;;;;;;;;;4988386;28;20037;-42
2022/12/24 06:42:28;;;;;;;14.02;9.07;;;;;;;;;;4988383;28;20070;-42
2022/12/24 06:44:54;;;;;;;14.13;9.98;;;;;;;;;;4986938;28;20476;-42
2022/12/24 06:47:19;;;;;;;12.18;8.45;;;;;;;;;;4988219;28;20035;-42
2022/12/24 06:49:45;;;;;;;11.88;9.13;;;;;;;;;;4984292;28;20026;-42
2022/12/24 06:52:10;;;;;;;13.93;8.35;;;;;;;;;;4985959;28;20112;-42
2022/12/24 06:54:35;;;;;;;12.90;9.00;;;;;;;;;;4986514;28;20038;-41
2022/12/24 06:57:01;;;;;;;14.93;9.18;;;;;;;;;;4988240;28;20058;-44
2022/12/24 06:59:26;;;;;;;17.08;11.35;;;;;;;;;;4987371;28;20036;-46
2022/12/24 07:01:51;;;;;;;23.58;11.77;;;;;;;;;;4990981;28;20042;-43
2022/12/24 07:04:17;;;;;;;17.85;10.65;;;;;;;;;;4987085;28;20084;-44
2022/12/24 07:06:42;;;;;;;15.55;11.00;;;;;;;;;;4989864;28;20033;-42
2022/12/24 07:09:12;;;;;;;20.08;12.45;;;;;;;;;;4990940;28;20023;-42
2022/12/24 07:11:37;;;;;;;16.83;11.43;;;;;;;;;;4990339;28;20026;-42
2022/12/24 07:14:02;;;;;;;14.75;11.02;;;;;;;;;;4987323;28;20374;-42
2022/12/24 07:16:28;;;;;;;19.38;11.52;;;;;;;;;;4989700;28;20027;-42
2022/12/24 07:18:53;;;;;;;20.38;11.85;;;;;;;;;;4990609;28;20497;-45
2022/12/24 07:21:19;;;;;;;14.90;10.23;;;;;;;;;;4991054;28;20560;-42
2022/12/24 07:23:44;;;;;;;15.90;11.07;;;;;;;;;;4988730;28;20042;-42
2022/12/24 07:26:10;;;;;;;11.93;10.07;;;;;;;;;;4989614;28;20058;-43
2022/12/24 07:28:35;;;;;;;14.95;9.45;;;;;;;;;;4986634;28;20066;-42
2022/12/24 07:31:00;;;;;;;16.00;9.15;;;;;;;;;;4989373;28;20387;-44
2022/12/24 07:33:26;;;;;;;13.93;9.55;;;;;;;;;;4988942;28;20062;-43
2022/12/24 07:36:19;;;;;;;19.15;10.88;;;;;;;;;;4988004;28;20042;-43
2022/12/24 07:38:45;;;;;;;19.90;10.60;;;;;;;;;;4987632;28;20046;-42
2022/12/24 07:41:11;;;;;;;19.75;11.10;;;;;;;;;;4989491;28;20034;-42
2022/12/24 07:43:36;;;;;;;17.67;10.93;;;;;;;;;;4990736;28;20050;-44
2022/12/24 07:46:02;;;;;;;17.55;10.57;;;;;;;;;;4988825;28;20034;-43
2022/12/24 07:48:28;;;;;;;15.52;10.98;;;;;;;;;;4989693;28;20047;-46
2022/12/24 07:50:54;;;;;;;19.55;9.43;;;;;;;;;;4990070;28;20034;-44
2022/12/24 07:53:20;;;;;;;18.25;10.63;;;;;;;;;;4990331;28;20053;-43
2022/12/24 07:55:45;;;;;;;12.55;9.15;;;;;;;;;;4988601;28;20050;-44
2022/12/24 07:58:11;;;;;;;11.23;8.60;;;;;;;;;;4990138;28;20057;-42
2022/12/24 08:00:36;;;;;;;14.55;9.75;;;;;;;;;;4989176;28;20113;-41
2022/12/24 08:03:02;;;;;;;14.93;10.75;;;;;;;;;;4987816;28;20042;-42
2022/12/24 08:05:28;;;;;;;15.27;10.77;;;;;;;;;;4986853;28;20036;-44
2022/12/24 08:07:53;;;;;;;15.57;12.02;;;;;;;;;;4987142;28;20038;-45
2022/12/24 08:10:19;;;;;;;14.73;11.02;;;;;;;;;;4989498;28;20121;-42
2022/12/24 08:12:47;;;;;;;20.50;11.70;;;;;;;;;;4980854;28;22341;-42
2022/12/24 08:15:12;;;;;;;15.00;10.15;;;;;;;;;;4986824;28;20089;-43
2022/12/24 08:17:38;;;;;;;16.35;10.77;;;;;;;;;;4985985;28;20562;-41
2022/12/24 08:20:04;;;;;;;14.85;9.93;;;;;;;;;;4980826;28;20022;-42
2022/12/24 08:22:29;;;;;;;12.98;10.27;;;;;;;;;;4980606;28;20061;-43
2022/12/24 08:24:55;;;;;;;16.02;10.50;;;;;;;;;;4984498;28;20570;-45
2022/12/24 08:27:20;;;;;;;14.18;10.45;;;;;;;;;;4984385;28;20118;-42
2022/12/24 08:29:46;;;;;;;15.60;9.95;;;;;;;;;;4980889;28;20478;-41
2022/12/24 08:32:11;;;;;;;13.93;10.75;;;;;;;;;;4981420;28;20050;-43
2022/12/24 08:34:36;;;;;;;16.27;11.52;;;;;;;;;;4986634;28;20042;-45
2022/12/24 08:37:02;;;;;;;17.08;11.30;;;;;;;;;;4986803;28;20430;-43
2022/12/24 08:39:27;;;;;;;22.20;13.55;;;;;;;;;;4981955;28;20038;-44
2022/12/24 08:41:52;;;;;;;24.13;13.88;;;;;;;;;;4983521;28;20168;-45
2022/12/24 08:44:18;;;;;;;18.90;12.80;;;;;;;;;;4981326;28;20523;-45
2022/12/24 08:46:43;;;;;;;23.60;13.35;;;;;;;;;;4980009;28;20031;-43
2022/12/24 08:49:09;;;;;;;20.73;13.90;;;;;;;;;;4984368;28;20474;-44
2022/12/24 08:51:34;;;;;;;30.10;16.55;;;;;;;;;;4983689;28;20170;-44
2022/12/24 08:53:59;;;;;;;24.38;18.30;;;;;;;;;;4987841;28;20022;-42
2022/12/24 08:56:25;;;;;;;27.73;21.30;;;;;;;;;;4980408;28;20061;-46
2022/12/24 08:58:50;;;;;;;28.92;23.48;;;;;;;;;;4982737;28;20047;-43
2022/12/24 09:01:20;;;;;;;40.15;23.42;;;;;;;;;;4979727;28;20034;-41
2022/12/24 09:03:46;;;;;;;30.55;20.58;;;;;;;;;;4983086;28;20042;-42
2022/12/24 09:06:13;;;;;;;25.55;15.98;;;;;;;;;;4983546;28;20050;-42
2022/12/24 09:08:39;;;;;;;24.90;15.40;;;;;;;;;;4981139;28;20045;-42
2022/12/24 09:11:06;;;;;;;28.92;16.83;;;;;;;;;;4986559;28;20113;-43
2022/12/24 09:13:31;;;;;;;27.27;17.52;;;;;;;;;;4982911;28;20061;-43
2022/12/24 09:15:56;;;;;;;24.77;16.55;;;;;;;;;;4981730;28;20039;-41
2022/12/24 09:18:22;;;;;;;25.00;15.18;;;;;;;;;;4978380;28;20046;-43
2022/12/24 09:20:48;;;;;;;24.08;14.80;;;;;;;;;;4982035;28;20109;-43
2022/12/24 09:23:13;;;;;;;24.70;16.23;;;;;;;;;;4983903;28;20138;-42
2022/12/24 09:25:42;;;;;;;33.88;22.52;;;;;;;;;;4985006;28;20394;-44
2022/12/24 09:28:08;;;;;;;40.03;22.38;;;;;;;;;;4976912;28;20044;-43
2022/12/24 09:30:35;;;;;;;29.90;17.40;;;;;;;;;;4978670;28;20559;-44
2022/12/24 09:33:01;;;;;;;24.05;14.55;;;;;;;;;;4979256;28;20046;-42
2022/12/24 09:35:26;;;;;;;21.80;13.73;;;;;;;;;;4986075;28;20025;-42
2022/12/24 09:38:01;;;;;;;19.65;12.65;;;;;;;;;;4983756;28;20104;-45
2022/12/24 09:40:36;;;;;;;24.67;13.38;;;;;;;;;;4981354;28;20487;-44
2022/12/24 09:43:05;;;;;;;21.80;13.60;;;;;;;;;;4982219;28;20088;-45
2022/12/24 09:45:34;;;;;;;17.80;12.40;;;;;;;;;;4984603;28;20510;-45
2022/12/24 09:48:11;;;;;;;20.20;11.93;;;;;;;;;;4983514;28;20419;-43
2022/12/24 09:50:52;;;;;;;19.52;12.30;;;;;;;;;;4986381;28;20030;-44
2022/12/24 09:53:26;;;;;;;18.88;12.00;;;;;;;;;;4986144;28;20100;-43
2022/12/24 09:55:56;;;;;;;17.15;10.75;;;;;;;;;;4987330;28;20050;-43
2022/12/24 09:58:53;;;;;;;20.73;13.32;;;;;;;;;;4988186;28;20518;-43
2022/12/24 10:01:18;;;;;;;28.05;14.23;;;;;;;;;;4983329;28;20128;-45
2022/12/24 10:03:45;;;;;;;16.45;11.32;;;;;;;;;;4984733;28;20121;-45
2022/12/24 10:06:18;;;;;;;19.83;11.60;;;;;;;;;;4985590;28;20045;-44
2022/12/24 10:09:05;;;;;;;17.63;10.77;;;;;;;;;;4988183;28;20041;-44
2022/12/24 10:11:50;;;;;;;17.85;9.88;;;;;;;;;;4985305;28;20586;-44
2022/12/24 10:14:29;;;;;;;14.85;9.32;;;;;;;;;;4986257;28;20058;-42
2022/12/24 10:17:16;;;;;;;19.35;11.07;;;;;;;;;;4985761;28;20050;-43
2022/12/24 10:19:56;;;;;;;16.75;10.93;;;;;;;;;;4985844;28;20038;-47
2022/12/24 10:22:40;;;;;;;16.92;10.52;;;;;;;;;;4983714;28;20077;-46
2022/12/24 10:25:15;;;;;;;19.30;9.80;;;;;;;;;;4982650;28;20395;-45
2022/12/24 10:27:40;;;;;;;19.45;10.05;;;;;;;;;;4983202;28;20049;-43
2022/12/24 10:30:14;;;;;;;19.35;11.10;;;;;;;;;;4983832;28;20030;-43
2022/12/24 10:32:40;;;;;;;15.65;8.88;;;;;;;;;;4985415;28;20058;-45
2022/12/24 10:35:19;;;;;;;16.95;8.95;;;;;;;;;;4988741;28;20034;-44
2022/12/24 10:37:47;;;;;;;13.82;8.95;;;;;;;;;;4983038;28;20608;-46
2022/12/24 10:40:34;;;;;;;15.43;8.48;;;;;;;;;;4982883;28;20057;-44
2022/12/24 10:42:59;;;;;;;14.07;9.02;;;;;;;;;;4977611;28;20043;-43
2022/12/24 10:45:35;;;;;;;19.80;9.75;;;;;;;;;;4980975;28;20030;-46
2022/12/24 10:48:06;;;;;;;14.05;9.30;;;;;;;;;;4988826;28;20538;-44
2022/12/24 10:50:38;;;;;;;12.07;9.98;;;;;;;;;;4990655;28;20132;-51
2022/12/24 10:53:11;;;;;;;24.45;10.75;;;;;;;;;;4990200;28;20038;-44
2022/12/24 10:55:37;;;;;;;20.92;10.45;;;;;;;;;;4981551;28;20141;-43
2022/12/24 10:58:13;;;;;;;13.27;9.75;;;;;;;;;;4988230;28;20122;-44
2022/12/24 11:00:40;;;;;;;13.35;10.38;;;;;;;;;;4987149;28;20124;-44
2022/12/24 11:03:11;;;;;;;16.92;10.18;;;;;;;;;;4989124;28;20045;-43
2022/12/24 11:05:38;;;;;;;17.63;10.15;;;;;;;;;;4993754;28;20111;-44
2022/12/24 11:08:12;;;;;;;13.80;9.00;;;;;;;;;;4984421;28;20050;-43
2022/12/24 11:10:59;;;;;;;15.63;10.15;;;;;;;;;;4983368;28;20049;-43
2022/12/24 11:13:31;;;;;;;18.08;9.88;;;;;;;;;;4984522;28;20035;-45
2022/12/24 11:16:21;;;;;;;18.08;10.40;;;;;;;;;;4986809;28;20022;-45
2022/12/24 11:18:49;;;;;;;15.98;9.35;;;;;;;;;;4984901;28;20101;-43
2022/12/24 11:21:39;;;;;;;17.08;10.57;;;;;;;;;;4985710;28;20050;-43
2022/12/24 11:24:16;;;;;;;19.52;10.30;;;;;;;;;;4986516;28;20038;-44
2022/12/24 11:26:43;;;;;;;15.60;10.90;;;;;;;;;;4989479;28;20022;-43
2022/12/24 11:29:12;;;;;;;18.63;11.27;;;;;;;;;;4988852;28;20061;-43
2022/12/24 11:31:38;;;;;;;23.83;10.80;;;;;;;;;;4986019;28;20054;-43
2022/12/24 11:34:22;;;;;;;15.02;10.40;;;;;;;;;;4987771;28;20072;-43
2022/12/24 11:36:49;;;;;;;19.25;10.20;;;;;;;;;;4987573;28;20050;-43
2022/12/24 11:39:21;;;;;;;16.85;9.70;;;;;;;;;;4987088;28;20029;-44
2022/12/24 11:41:47;;;;;;;14.05;9.10;;;;;;;;;;4986757;28;20668;-44
2022/12/24 11:44:13;;;;;;;13.40;9.35;;;;;;;;;;4985842;28;20045;-43
2022/12/24 11:46:41;;;;;;;13.30;8.93;;;;;;;;;;4979673;28;20038;-47
2022/12/24 11:49:15;;;;;;;16.65;8.98;;;;;;;;;;4985335;28;20029;-45
2022/12/24 11:51:57;;;;;;;13.65;9.10;;;;;;;;;;4986078;28;20073;-43
2022/12/24 11:54:26;;;;;;;16.52;8.18;;;;;;;;;;4983728;28;20475;-45
2022/12/24 11:56:55;;;;;;;15.80;7.82;;;;;;;;;;4985740;28;20050;-44
2022/12/24 11:59:32;;;;;;;12.75;7.78;;;;;;;;;;4984260;28;20081;-43
2022/12/24 12:02:37;;;;;;;13.13;8.30;;;;;;;;;;4981789;28;20070;-46
2022/12/24 12:05:10;;;;;;;17.75;10.20;;;;;;;;;;4979791;28;20110;-46
2022/12/24 12:07:37;;;;;;;18.63;8.23;;;;;;;;;;4980007;28;20043;-44
2022/12/24 12:10:17;;;;;;;11.70;8.65;;;;;;;;;;4982701;28;20546;-43
2022/12/24 12:12:55;;;;;;;12.45;6.22;;;;;;;;;;4975043;28;20134;-44
2022/12/24 12:15:25;;;;;;;9.57;6.07;;;;;;;;;;4979172;28;20135;-44
2022/12/24 12:17:56;;;;;;;13.88;5.72;;;;;;;;;;4973144;28;20105;-43
2022/12/24 12:20:25;;;;;;;10.85;5.95;;;;;;;;;;4975268;28;20027;-43
2022/12/24 12:23:08;;;;;;;8.93;6.22;;;;;;;;;;4977914;28;20443;-44
2022/12/24 12:25:55;;;;;;;11.43;5.68;;;;;;;;;;4980406;28;20068;-44
2022/12/24 12:28:25;;;;;;;12.90;6.28;;;;;;;;;;4977470;28;20042;-43
2022/12/24 12:31:01;;;;;;;7.93;5.80;;;;;;;;;;4986033;28;20034;-43
2022/12/24 12:33:43;;;;;;;10.45;6.10;;;;;;;;;;4976746;28;20442;-44
2022/12/24 12:36:11;;;;;;;13.48;7.03;;;;;;;;;;4980890;28;20065;-44
2022/12/24 12:38:38;;;;;;;9.93;7.10;;;;;;;;;;4979763;28;20504;-44
2022/12/24 12:41:12;;;;;;;16.08;7.10;;;;;;;;;;4986149;28;20488;-44
2022/12/24 12:43:50;;;;;;;15.82;7.03;;;;;;;;;;4986634;28;20045;-43
2022/12/24 12:46:15;;;;;;;8.93;5.75;;;;;;;;;;4979823;28;20046;-44
2022/12/24 12:49:08;;;;;;;11.32;6.38;;;;;;;;;;4982959;28;20096;-43
2022/12/24 12:51:55;;;;;;;10.93;6.18;;;;;;;;;;4985323;28;20479;-43
2022/12/24 12:54:33;;;;;;;9.70;6.28;;;;;;;;;;4988746;28;20038;-44
2022/12/24 12:57:05;;;;;;;7.22;5.70;;;;;;;;;;4986773;28;20053;-43
2022/12/24 12:59:46;;;;;;;7.82;5.53;;;;;;;;;;4987359;28;20022;-44
2022/12/24 13:02:39;;;;;;;6.80;5.40;;;;;;;;;;4983129;28;20057;-45
2022/12/24 13:05:50;;;;;;;14.10;7.82;;;;;;;;;;4981756;28;20427;-46
2022/12/24 13:08:53;;;;;;;8.52;6.40;;;;;;;;;;4984468;28;20053;-43
2022/12/24 13:11:37;;;;;;;9.77;6.28;;;;;;;;;;4982423;28;20030;-44
2022/12/24 13:14:21;;;;;;;16.08;7.07;;;;;;;;;;4980555;28;20122;-45
2022/12/24 13:17:05;;;;;;;13.15;7.13;;;;;;;;;;4987546;28;22138;-45
2022/12/24 13:19:36;;;;;;;24.33;7.97;;;;;;;;;;4986818;28;20141;-44
2022/12/24 13:22:03;;;;;;;10.63;7.22;;;;;;;;;;4981962;28;20069;-43
2022/12/24 13:24:30;;;;;;;13.32;6.90;;;;;;;;;;4985606;28;20042;-45
2022/12/24 13:27:03;;;;;;;10.20;7.07;;;;;;;;;;4987775;28;20042;-44
2022/12/24 13:29:37;;;;;;;13.20;7.55;;;;;;;;;;4987255;28;20034;-44
2022/12/24 13:32:21;;;;;;;11.13;6.60;;;;;;;;;;4988799;28;20034;-44
2022/12/24 13:34:55;;;;;;;15.10;6.80;;;;;;;;;;4987305;28;20038;-44
2022/12/24 13:37:29;;;;;;;11.98;6.30;;;;;;;;;;4985940;28;20125;-43
2022/12/24 13:40:07;;;;;;;9.65;6.57;;;;;;;;;;4986152;28;20027;-43
2022/12/24 13:42:56;;;;;;;10.23;6.05;;;;;;;;;;4986267;28;20125;-43
2022/12/24 13:45:28;;;;;;;8.40;6.30;;;;;;;;;;4987112;28;20043;-46
2022/12/24 13:48:21;;;;;;;12.13;6.13;;;;;;;;;;4988352;28;20050;-43
2022/12/24 13:50:48;;;;;;;11.45;5.55;;;;;;;;;;4990934;28;20450;-43
2022/12/24 13:53:34;;;;;;;10.18;5.90;;;;;;;;;;4986756;28;20502;-44
2022/12/24 13:56:07;;;;;;;11.70;5.38;;;;;;;;;;4984833;28;20116;-43
2022/12/24 13:58:35;;;;;;;8.30;5.10;;;;;;;;;;4984972;28;20034;-43
2022/12/24 14:01:08;;;;;;;9.60;5.43;;;;;;;;;;4987631;28;20129;-43
2022/12/24 14:03:40;;;;;;;9.70;5.35;;;;;;;;;;4988744;28;20518;-43
2022/12/24 14:06:07;;;;;;;;;;;;;;;;;;4993280;28;20081;-43
2022/12/24 14:08:37;;;;;;;10.20;5.35;;;;;;;;;;4990891;28;19925;-45
2022/12/24 14:11:32;;;;;;;8.80;4.97;;;;;;;;;;4995587;28;20030;-43
2022/12/24 14:14:03;;;;;;;7.85;5.38;;;;;;;;;;4947138;28;20076;-44
2022/12/24 14:16:30;;;;;;;8.18;5.47;;;;;;;;;;4946634;28;20054;-41
2022/12/24 14:19:02;;;;;;;9.63;6.18;;;;;;;;;;4945348;28;20148;-47
2022/12/24 14:21:37;;;;;;;8.30;6.43;;;;;;;;;;4948520;28;20149;-42
2022/12/24 14:24:20;;;;;;;11.15;5.85;;;;;;;;;;4949596;28;20039;-44
2022/12/24 14:26:55;;;;;;;9.77;6.38;;;;;;;;;;4949980;28;20031;-44
2022/12/24 14:29:27;;;;;;;7.93;5.32;;;;;;;;;;4946421;28;20035;-43
2022/12/24 14:31:55;;;;;;;10.35;6.30;;;;;;;;;;4947804;28;20080;-46
2022/12/24 14:34:21;;;;;;;7.70;5.40;;;;;;;;;;4950475;28;20035;-44
2022/12/24 14:36:48;;;;;;;10.25;5.70;;;;;;;;;;4949707;28;20058;-43
2022/12/24 14:39:33;;;;;;;8.30;5.03;;;;;;;;;;4946823;28;20058;-43
2022/12/24 14:42:19;;;;;;;8.30;5.30;;;;;;;;;;4951452;28;20047;-44
2022/12/24 14:44:53;;;;;;;9.98;5.82;;;;;;;;;;4950318;28;20038;-43
2022/12/24 14:47:27;;;;;;;9.27;5.63;;;;;;;;;;4945747;28;20094;-44
2022/12/24 14:50:03;;;;;;;11.70;5.78;;;;;;;;;;4957846;28;20038;-43